Time;durP1;ratioP1;P1;durP2;ratioP2;P2;SDS_P1;SDS_P2;PMS_P1;PMS_P2;Temp;Humidity;BMP_temperature;BMP_pressure;BME280_temperature;BME280_humidity;BME280_pressure;Samples;Min_cycle;Max_cycle;Signal;HPM_P1;HPM_P2
2022/09/05 00:01:42;;;;;;;7.47;4.82;;;;;;;19.17;91.66;101047.16;4892963;29;20093;-69
2022/09/05 00:04:26;;;;;;;7.45;4.60;;;;;;;19.12;92.64;101046.25;4894533;29;20045;-69
2022/09/05 00:07:20;;;;;;;6.65;4.50;;;;;;;19.10;92.83;101049.72;4904418;29;20044;-70
2022/09/05 00:10:08;;;;;;;8.13;4.57;;;;;;;19.08;92.44;101052.31;4874146;29;20132;-70
2022/09/05 00:12:35;;;;;;;7.93;5.07;;;;;;;19.00;92.99;101057.44;4911715;29;20071;-70
2022/09/05 00:15:18;;;;;;;5.97;4.82;;;;;;;19.04;92.81;101058.34;4930723;29;20525;-68
2022/09/05 00:17:52;;;;;;;6.93;5.25;;;;;;;18.82;93.69;101062.44;4941153;28;20065;-73
2022/09/05 00:20:37;;;;;;;7.57;4.95;;;;;;;18.69;94.86;101061.38;5000084;28;20080;-67
2022/09/05 00:23:30;;;;;;;6.88;5.40;;;;;;;18.57;95.76;101057.75;5005559;28;20072;-71
2022/09/05 00:26:30;;;;;;;11.98;5.35;;;;;;;18.66;95.49;101058.75;5007073;28;20058;-73
2022/09/05 00:29:14;;;;;;;10.43;4.88;;;;;;;18.77;94.78;101057.16;5009128;28;20038;-75
2022/09/05 00:31:54;;;;;;;7.07;5.18;;;;;;;18.79;94.68;101065.91;5000941;28;20105;-70
2022/09/05 00:34:34;;;;;;;6.80;4.88;;;;;;;18.76;95.09;101052.75;4999135;28;20065;-71
2022/09/05 00:37:00;;;;;;;8.88;5.38;;;;;;;18.78;94.52;101044.94;5009978;28;20444;-70
2022/09/05 00:39:35;;;;;;;10.00;5.25;;;;;;;18.93;93.35;101058.25;5008829;28;20034;-73
2022/09/05 00:42:09;;;;;;;11.73;5.78;;;;;;;18.94;93.18;101053.88;5008321;28;20038;-68
2022/09/05 00:44:47;;;;;;;6.93;5.10;;;;;;;18.91;93.14;101052.97;5009056;28;20065;-71
2022/09/05 00:47:34;;;;;;;7.07;5.20;;;;;;;18.95;93.20;101055.66;5038982;28;20040;-71
2022/09/05 00:50:33;;;;;;;9.23;5.05;;;;;;;18.90;93.57;101055.53;5052153;28;20110;-70
2022/09/05 00:53:08;;;;;;;7.57;5.15;;;;;;;18.96;93.07;101065.25;4950114;28;20051;-71
2022/09/05 00:56:02;;;;;;;10.38;5.75;;;;;;;18.85;93.62;101060.72;4950136;28;20035;-71
2022/09/05 00:58:49;;;;;;;10.05;5.78;;;;;;;18.84;93.51;101063.31;4950584;28;20035;-70
2022/09/05 01:01:29;;;;;;;10.57;5.50;;;;;;;18.84;93.10;101063.31;4951297;28;20051;-74
2022/09/05 01:04:06;;;;;;;9.48;5.35;;;;;;;18.83;93.29;101067.69;4966042;28;20053;-70
2022/09/05 01:06:58;;;;;;;7.13;4.72;;;;;;;18.81;92.84;101058.94;4971031;28;20051;-70
2022/09/05 01:09:49;;;;;;;8.38;5.05;;;;;;;18.73;93.21;101065.81;4971187;28;20497;-70
2022/09/05 01:12:14;;;;;;;9.13;5.03;;;;;;;18.76;93.76;101061.47;4971271;28;20027;-71
2022/09/05 01:15:01;;;;;;;8.45;5.32;;;;;;;18.76;93.77;101055.38;4970949;28;20042;-70
2022/09/05 01:18:11;;;;;;;8.50;4.85;;;;;;;18.80;93.33;101051.94;4935203;28;20047;-72
2022/09/05 01:21:07;;;;;;;11.85;5.22;;;;;;;18.79;93.50;101051.94;4956705;28;20031;-70
2022/09/05 01:23:55;;;;;;;7.38;4.20;;;;;;;18.76;92.61;101047.53;4967096;28;20493;-70
2022/09/05 01:27:00;;;;;;;6.78;4.60;;;;;;;18.53;92.72;101006.28;4989479;28;20050;-70
2022/09/05 01:30:16;;;;;;;9.20;4.85;;;;;;;18.81;92.60;101035.38;4951461;28;20046;-72
2022/09/05 01:33:24;;;;;;;6.13;4.85;;;;;;;18.76;93.25;101032.72;4970015;28;20047;-72
2022/09/05 01:36:17;;;;;;;6.15;4.78;;;;;;;18.64;93.54;101022.13;4970156;28;20071;-71
2022/09/05 01:39:14;;;;;;;9.48;4.70;;;;;;;18.74;93.13;101028.31;4970145;28;20162;-70
2022/09/05 01:41:48;;;;;;;8.23;4.70;;;;;;;18.73;92.55;101018.75;4967424;28;20043;-71
2022/09/05 01:44:28;;;;;;;6.28;4.85;;;;;;;18.72;92.58;101017.84;4970048;28;20608;-70
2022/09/05 01:47:28;;;;;;;8.80;4.32;;;;;;;18.72;92.18;101015.22;4970722;28;20041;-67
2022/09/05 01:50:08;;;;;;;7.18;4.90;;;;;;;18.68;92.25;101016.06;4970640;28;20043;-67
2022/09/05 01:52:57;;;;;;;14.50;5.50;;;;;;;18.62;92.63;101017.69;4970676;28;20046;-69
2022/09/05 01:55:53;;;;;;;7.15;4.80;;;;;;;18.57;92.67;101001.97;4970618;28;20045;-69
2022/09/05 01:58:26;;;;;;;8.82;4.63;;;;;;;18.62;92.59;101020.31;4970698;28;20156;-69
2022/09/05 02:01:10;;;;;;;8.13;4.97;;;;;;;18.61;92.28;101022.06;4954443;28;20031;-68
2022/09/05 02:03:57;;;;;;;7.45;5.25;;;;;;;18.46;92.69;101025.34;4970679;28;20429;-68
2022/09/05 02:07:16;;;;;;;6.25;4.55;;;;;;;18.41;92.97;101027.91;4998154;28;20033;-68
2022/09/05 02:10:25;;;;;;;6.95;4.60;;;;;;;18.28;93.32;101033.84;5029009;28;20076;-67
2022/09/05 02:13:16;;;;;;;11.07;4.73;;;;;;;18.30;93.54;101028.63;4951071;29;20410;-70
2022/09/05 02:15:49;;;;;;;8.45;4.63;;;;;;;18.32;93.38;101046.09;4950836;29;20062;-70
2022/09/05 02:21:32;;;;;;;11.63;4.97;;;;;;;18.41;92.84;101045.34;5152218;22;20065;-68
2022/09/05 02:24:12;;;;;;;9.30;5.38;;;;;;;18.40;92.84;101054.91;5052048;28;20025;-68
2022/09/05 02:27:01;;;;;;;7.75;4.78;;;;;;;18.33;93.15;101052.19;5052237;28;20021;-68
2022/09/05 02:29:52;;;;;;;8.60;5.05;;;;;;;18.42;92.44;101063.66;5052078;28;20537;-69
2022/09/05 02:32:26;;;;;;;8.90;5.00;;;;;;;18.35;91.95;101043.50;5051789;28;20029;-68
2022/09/05 02:35:23;;;;;;;5.97;4.35;;;;;;;18.38;91.86;101055.72;5051947;28;20052;-68
2022/09/05 02:38:04;;;;;;;6.85;4.80;;;;;;;18.11;92.15;101010.94;4990322;28;20082;-69
2022/09/05 02:40:35;;;;;;;7.93;4.47;;;;;;;18.36;92.26;101054.84;4989355;28;20555;-68
2022/09/05 02:43:04;;;;;;;10.35;4.72;;;;;;;18.31;92.11;101061.75;4989876;28;20053;-68
2022/09/05 02:45:57;;;;;;;6.78;5.18;;;;;;;18.27;92.07;101045.16;4973644;28;20034;-68
2022/09/05 02:48:41;;;;;;;6.55;4.85;;;;;;;18.34;92.02;101069.63;4989963;28;20035;-68
2022/09/05 02:51:15;;;;;;;7.78;4.65;;;;;;;18.35;91.98;101061.81;4989891;28;20034;-68
2022/09/05 02:53:46;;;;;;;8.23;4.35;;;;;;;18.40;91.83;101059.25;4989768;28;20036;-68
2022/09/05 02:56:26;;;;;;;7.72;5.05;;;;;;;18.36;92.00;101054.84;4989594;28;20230;-68
2022/09/05 02:59:01;;;;;;;6.72;5.07;;;;;;;18.23;92.42;101054.69;4989751;28;20619;-68
2022/09/05 03:01:40;;;;;;;7.65;5.25;;;;;;;18.21;92.51;101056.38;4989719;28;20049;-68
2022/09/05 03:04:26;;;;;;;9.88;4.90;;;;;;;18.18;92.40;101058.97;4989791;28;20030;-69
2022/09/05 03:07:12;;;;;;;6.18;4.72;;;;;;;17.77;93.13;101022.59;4989650;28;20038;-69
2022/09/05 03:09:58;;;;;;;8.43;4.97;;;;;;;17.99;93.14;101060.38;4989728;28;20062;-68
2022/09/05 03:13:03;;;;;;;7.07;4.50;;;;;;;18.03;93.13;101056.09;4989573;28;20038;-68
2022/09/05 03:15:41;;;;;;;8.52;4.80;;;;;;;18.10;92.48;101056.19;5050815;28;20039;-68
2022/09/05 03:18:43;;;;;;;8.60;5.40;;;;;;;18.11;92.17;101059.72;5051104;28;20025;-68
2022/09/05 03:21:46;;;;;;;7.43;5.07;;;;;;;18.10;92.81;101056.19;5051142;28;20044;-68
2022/09/05 03:24:33;;;;;;;9.30;4.82;;;;;;;18.16;92.01;101063.28;5050859;28;20017;-68
2022/09/05 03:27:07;;;;;;;8.50;5.13;;;;;;;18.04;92.78;101058.72;5050809;28;20033;-70
2022/09/05 03:33:16;;;;;;;10.73;5.78;;;;;;;17.86;93.98;101068.88;5174177;22;20117;-71
2022/09/05 03:36:08;;;;;;;7.22;5.00;;;;;;;17.81;94.47;101071.41;5070911;28;20029;-68
2022/09/05 03:38:58;;;;;;;9.30;5.32;;;;;;;17.76;94.02;101075.66;5028548;28;20046;-68
2022/09/05 03:41:57;;;;;;;9.02;5.85;;;;;;;17.76;93.75;101083.50;5028331;28;20137;-67
2022/09/05 03:44:40;;;;;;;10.85;5.60;;;;;;;17.74;93.46;101082.59;5028485;28;20523;-67
2022/09/05 03:47:35;;;;;;;13.25;5.53;;;;;;;17.74;93.50;101080.84;5028482;28;20037;-68
2022/09/05 03:50:23;;;;;;;8.95;5.35;;;;;;;17.75;93.84;101086.97;5028428;28;20042;-70
2022/09/05 03:53:25;;;;;;;11.55;5.80;;;;;;;17.71;93.89;101086.03;5028454;28;20113;-68
2022/09/05 03:56:08;;;;;;;10.02;4.68;;;;;;;17.67;94.16;101079.00;5027574;28;20041;-70
2022/09/05 03:58:52;;;;;;;9.63;5.35;;;;;;;17.62;94.63;101075.44;5028242;28;20041;-70
2022/09/05 04:01:41;;;;;;;7.95;5.70;;;;;;;17.34;94.30;101038.38;5012578;28;20152;-68
2022/09/05 04:04:48;;;;;;;12.23;5.78;;;;;;;17.54;94.24;101075.28;5007350;28;20030;-71
2022/09/05 04:07:41;;;;;;;10.65;4.80;;;;;;;17.49;94.62;101078.66;4968969;28;20428;-70
2022/09/05 04:10:31;;;;;;;8.73;5.25;;;;;;;17.46;95.11;101084.72;4930393;29;20110;-73
2022/09/05 04:13:06;;;;;;;6.05;4.70;;;;;;;17.43;95.09;101084.63;4929796;29;20533;-70
2022/09/05 04:15:37;;;;;;;11.15;5.05;;;;;;;17.37;95.57;101084.53;4941935;28;20101;-70
2022/09/05 04:18:20;;;;;;;10.30;4.72;;;;;;;17.26;95.83;101084.34;4949204;29;20046;-70
2022/09/05 04:20:56;;;;;;;14.52;4.90;;;;;;;16.93;96.57;101047.16;4949067;29;20047;-67
2022/09/05 04:23:24;;;;;;;6.88;4.60;;;;;;;17.13;96.80;101091.03;4949320;29;20052;-68
2022/09/05 04:26:04;;;;;;;5.93;4.70;;;;;;;17.11;96.55;101100.56;4949411;29;20032;-67
2022/09/05 04:28:38;;;;;;;7.50;4.80;;;;;;;17.03;97.37;101095.19;4949281;29;20043;-67
2022/09/05 04:31:31;;;;;;;9.90;4.72;;;;;;;16.72;98.42;101047.56;4948913;29;20078;-70
2022/09/05 04:34:26;;;;;;;9.55;5.07;;;;;;;16.98;98.51;101097.72;4950002;28;20134;-70
2022/09/05 04:37:08;;;;;;;8.10;5.00;;;;;;;16.91;98.57;101097.50;4952502;29;20083;-68
2022/09/05 04:39:34;;;;;;;7.22;4.70;;;;;;;16.90;98.95;101101.84;4952536;29;20074;-71
2022/09/05 04:42:06;;;;;;;7.60;4.78;;;;;;;16.69;98.34;101067.50;4952668;29;20517;-70
2022/09/05 04:44:58;;;;;;;8.32;4.60;;;;;;;16.80;99.17;101108.59;4966790;28;20086;-71
2022/09/05 04:47:34;;;;;;;7.28;5.60;;;;;;;16.75;100.00;101115.44;5008976;28;20041;-71
2022/09/05 04:50:04;;;;;;;9.95;4.90;;;;;;;16.50;100.00;101081.00;5033019;28;20030;-67
2022/09/05 04:52:43;;;;;;;6.78;4.55;;;;;;;16.48;100.00;101080.06;5038661;28;20032;-68
2022/09/05 04:55:17;;;;;;;7.07;4.70;;;;;;;16.49;100.00;101091.41;5052947;28;20025;-71
2022/09/05 04:57:56;;;;;;;8.10;5.03;;;;;;;16.73;100.00;101127.53;5052792;28;20025;-67
2022/09/05 05:00:25;;;;;;;8.20;4.80;;;;;;;16.74;100.00;101133.66;5052593;28;20025;-68
2022/09/05 05:02:54;;;;;;;10.40;5.15;;;;;;;16.80;100.00;101131.19;5052847;28;20025;-70
2022/09/05 05:05:23;;;;;;;8.83;4.50;;;;;;;16.83;100.00;101123.41;5033084;28;20120;-70
2022/09/05 05:08:00;;;;;;;7.23;4.63;;;;;;;16.87;100.00;101114.81;5032851;28;20033;-67
2022/09/05 05:10:52;;;;;;;8.27;4.80;;;;;;;17.05;100.00;101126.53;5032730;28;20087;-73
2022/09/05 05:13:30;;;;;;;9.05;4.78;;;;;;;17.06;99.37;101129.16;5035160;28;20458;-67
2022/09/05 05:16:19;;;;;;;6.55;4.00;;;;;;;17.21;98.54;101139.03;5032701;28;20033;-72
2022/09/05 05:18:53;;;;;;;6.78;4.28;;;;;;;17.20;97.51;101133.78;5032790;28;20037;-68
2022/09/05 05:21:21;;;;;;;5.70;4.00;;;;;;;17.25;96.18;101139.97;5032359;28;20037;-70
2022/09/05 05:23:53;;;;;;;6.63;4.07;;;;;;;17.35;96.44;101148.88;5032757;28;20021;-70
2022/09/05 05:26:31;;;;;;;7.45;4.43;;;;;;;17.40;96.35;101144.63;5032540;28;20116;-70
2022/09/05 05:28:59;;;;;;;9.30;4.07;;;;;;;17.28;95.09;101113.94;5032113;28;20516;-71
2022/09/05 05:31:30;;;;;;;7.68;4.10;;;;;;;17.50;95.22;101146.56;5032306;28;20060;-68
2022/09/05 05:34:19;;;;;;;5.65;3.75;;;;;;;17.68;93.82;101142.53;5032374;28;20545;-70
2022/09/05 05:36:51;;;;;;;8.18;4.13;;;;;;;17.69;92.95;101121.66;4990243;28;20085;-70
2022/09/05 05:39:24;;;;;;;6.93;4.40;;;;;;;17.81;92.10;101127.97;4990583;28;20528;-70
2022/09/05 05:41:55;;;;;;;7.35;4.10;;;;;;;17.85;91.84;101135.03;4990362;28;20815;-69
2022/09/05 05:44:25;;;;;;;6.68;3.47;;;;;;;17.95;91.74;101145.66;4990398;28;20113;-70
2022/09/05 05:46:56;;;;;;;;;;;;;;;17.96;90.27;101123.06;4990717;28;20034;-69
2022/09/05 05:49:34;;;;;;;7.00;3.40;;;;;;;18.04;90.66;101134.50;4990557;28;19983;-71
2022/09/05 05:52:18;;;;;;;11.63;3.47;;;;;;;18.16;89.24;101136.44;4990336;28;20058;-70
2022/09/05 05:55:07;;;;;;;6.95;3.67;;;;;;;18.21;87.98;101128.69;4973773;28;20045;-68
2022/09/05 05:57:35;;;;;;;7.70;3.40;;;;;;;18.33;87.04;101130.59;4990180;28;20532;-69
2022/09/05 06:00:13;;;;;;;7.93;2.90;;;;;;;18.44;87.98;101126.41;4989995;28;20453;-70
2022/09/05 06:03:01;;;;;;;7.25;3.55;;;;;;;18.58;87.04;101130.13;4990097;28;20034;-71
2022/09/05 06:05:32;;;;;;;6.63;2.92;;;;;;;18.63;83.63;101129.31;4989918;28;20046;-69
2022/09/05 06:08:06;;;;;;;7.93;2.80;;;;;;;18.80;80.83;101135.63;4989865;28;20042;-70
2022/09/05 06:11:15;;;;;;;5.22;2.63;;;;;;;19.12;80.65;101140.47;4989737;28;20034;-69
2022/09/05 06:14:07;;;;;;;8.73;2.85;;;;;;;19.19;80.00;101134.44;5007759;28;20145;-70
2022/09/05 06:16:35;;;;;;;7.18;2.95;;;;;;;19.33;77.91;101141.59;5031501;28;20041;-67
2022/09/05 06:19:45;;;;;;;5.95;2.65;;;;;;;19.48;77.75;101140.88;5049215;28;20056;-70
2022/09/05 06:22:51;;;;;;;6.43;2.58;;;;;;;19.76;74.69;101142.03;5051481;28;20033;-67
2022/09/05 06:25:38;;;;;;;4.20;2.63;;;;;;;19.96;73.23;101158.00;4970270;28;20045;-69
2022/09/05 06:28:21;;;;;;;6.47;2.40;;;;;;;20.06;70.68;101158.94;4969987;28;20580;-68
2022/09/05 06:30:51;;;;;;;4.93;2.20;;;;;;;20.23;69.77;101151.22;4970094;28;20038;-69
2022/09/05 06:33:27;;;;;;;3.83;2.30;;;;;;;20.20;70.70;101156.47;4970252;28;20150;-67
2022/09/05 06:36:01;;;;;;;7.40;2.53;;;;;;;20.28;69.53;101174.88;4969806;28;20053;-69
2022/09/05 06:38:45;;;;;;;8.00;2.30;;;;;;;20.32;68.01;101174.88;4969989;28;20141;-70
2022/09/05 06:41:14;;;;;;;7.00;2.20;;;;;;;20.60;67.83;101174.22;4969909;28;20043;-68
2022/09/05 06:44:01;;;;;;;8.73;2.65;;;;;;;20.71;67.95;101176.91;4969800;28;20042;-67
2022/09/05 06:46:38;;;;;;;4.07;2.38;;;;;;;20.77;67.97;101180.50;4970107;28;20031;-68
2022/09/05 06:49:46;;;;;;;5.65;2.40;;;;;;;20.81;66.79;101179.66;4969671;28;20037;-71
2022/09/05 06:52:36;;;;;;;3.67;2.40;;;;;;;20.88;66.35;101187.56;4915541;29;20530;-69
2022/09/05 06:55:36;;;;;;;3.95;2.30;;;;;;;21.09;64.93;101185.03;4930859;29;20521;-69
2022/09/05 06:58:20;;;;;;;;;;;;;;;21.14;63.45;101193.81;4931044;29;20039;-70
2022/09/05 07:01:05;;;;;;;3.45;2.03;;;;;;;21.04;61.51;101143.91;4960546;28;19906;-68
2022/09/05 07:04:18;;;;;;;3.50;1.80;;;;;;;21.34;61.58;101193.88;4989061;28;20394;-69
2022/09/05 07:07:02;;;;;;;6.15;2.08;;;;;;;21.46;61.91;101194.84;4969474;28;20039;-70
2022/09/05 07:09:42;;;;;;;9.23;3.33;;;;;;;21.55;62.62;101189.59;4969148;28;20046;-70
2022/09/05 07:12:20;;;;;;;4.75;2.20;;;;;;;21.61;62.35;101196.66;4969316;28;20117;-67
2022/09/05 07:14:56;;;;;;;8.73;2.55;;;;;;;21.53;61.57;101190.47;4969192;28;20053;-68
2022/09/05 07:17:58;;;;;;;3.55;2.10;;;;;;;21.62;62.17;101187.88;4969525;28;20800;-68
2022/09/05 07:20:33;;;;;;;3.22;1.83;;;;;;;21.73;59.51;101187.91;4950079;29;20039;-68
2022/09/05 07:23:19;;;;;;;6.40;2.05;;;;;;;22.00;60.72;101189.72;4949984;29;20637;-70
2022/09/05 07:25:49;;;;;;;2.72;1.77;;;;;;;22.13;60.05;101187.97;4949715;29;20526;-69
2022/09/05 07:28:18;;;;;;;3.67;2.05;;;;;;;22.19;59.89;101185.34;4949656;29;20501;-69
2022/09/05 07:31:01;;;;;;;6.10;2.13;;;;;;;22.17;59.75;101186.22;4949391;29;20062;-71
2022/09/05 07:33:30;;;;;;;5.00;1.83;;;;;;;22.22;59.31;101187.09;4950254;29;20062;-71
2022/09/05 07:36:05;;;;;;;4.45;2.15;;;;;;;22.40;59.04;101176.59;4949589;29;20043;-70
2022/09/05 07:38:34;;;;;;;4.43;2.13;;;;;;;22.67;58.44;101184.47;4949779;29;20091;-69
2022/09/05 07:41:26;;;;;;;2.55;1.75;;;;;;;22.72;58.83;101182.72;4948772;29;20035;-71
2022/09/05 07:43:57;;;;;;;3.33;1.85;;;;;;;22.58;57.46;101166.94;4949018;28;20046;-70
2022/09/05 07:46:31;;;;;;;5.22;2.15;;;;;;;22.73;58.38;101177.44;4949414;29;20039;-68
2022/09/05 07:49:19;;;;;;;2.75;1.83;;;;;;;22.72;57.94;101166.94;4946580;29;20039;-70
2022/09/05 07:52:01;;;;;;;4.15;2.00;;;;;;;22.96;56.48;101170.38;4947463;29;20490;-70
2022/09/05 07:54:32;;;;;;;3.85;1.88;;;;;;;23.03;57.02;101166.81;4948460;29;20063;-70
2022/09/05 07:57:05;;;;;;;3.90;1.80;;;;;;;23.22;54.95;101167.69;4948852;28;20050;-70
2022/09/05 07:59:37;;;;;;;2.53;1.63;;;;;;;23.22;56.24;101162.41;4984372;28;20038;-69
2022/09/05 08:02:05;;;;;;;2.50;1.80;;;;;;;22.89;56.02;101124.75;4985961;28;20504;-69
2022/09/05 08:04:33;;;;;;;2.50;1.40;;;;;;;23.14;56.16;101172.94;4987644;28;20031;-70
2022/09/05 08:07:10;;;;;;;3.85;1.85;;;;;;;23.15;56.79;101164.13;4988112;28;20112;-72
2022/09/05 08:09:45;;;;;;;3.50;1.90;;;;;;;23.19;56.21;101160.66;4990135;28;20385;-70
2022/09/05 08:12:41;;;;;;;2.88;1.58;;;;;;;23.27;55.31;101158.00;4969712;28;20034;-68
2022/09/05 08:15:17;;;;;;;2.90;1.50;;;;;;;23.49;55.40;101155.22;4972420;28;20047;-72
2022/09/05 08:17:55;;;;;;;2.35;1.63;;;;;;;23.53;53.19;101149.06;4971957;28;20058;-70
2022/09/05 08:20:47;;;;;;;1.73;1.33;;;;;;;23.61;54.10;101149.03;4989741;28;20060;-70
2022/09/05 08:23:33;;;;;;;2.78;1.30;;;;;;;23.66;56.10;101150.72;5037324;28;20067;-72
2022/09/05 08:26:07;;;;;;;2.55;1.42;;;;;;;23.59;54.00;101105.09;5050515;28;20040;-68
2022/09/05 08:29:01;;;;;;;2.22;1.67;;;;;;;23.88;53.15;101151.47;5047831;28;20033;-70
2022/09/05 08:31:44;;;;;;;1.85;1.40;;;;;;;23.95;50.00;101143.53;5010786;28;20058;-70
2022/09/05 08:34:20;;;;;;;3.83;1.60;;;;;;;23.96;53.12;101117.16;5010932;28;20095;-70
2022/09/05 08:36:50;;;;;;;2.00;1.50;;;;;;;24.36;50.63;101144.94;5010690;28;20042;-69
2022/09/05 08:39:23;;;;;;;3.00;1.40;;;;;;;24.31;51.06;101105.41;5010893;28;20026;-68
2022/09/05 08:42:24;;;;;;;9.90;3.20;;;;;;;24.64;52.92;101147.31;5010856;28;20042;-68
2022/09/05 08:44:58;;;;;;;3.90;1.60;;;;;;;24.63;51.60;101148.19;4971478;28;20042;-70
2022/09/05 08:47:31;;;;;;;2.70;1.50;;;;;;;24.60;48.55;101143.84;4971668;28;20110;-70
2022/09/05 08:50:34;;;;;;;3.80;1.75;;;;;;;24.75;49.34;101147.22;4969543;28;20505;-72
2022/09/05 08:53:18;;;;;;;2.97;1.50;;;;;;;24.75;48.36;101121.69;4971814;28;20026;-68
2022/09/05 08:56:00;;;;;;;2.42;1.15;;;;;;;25.11;48.61;101145.03;4971134;28;20059;-68
2022/09/05 08:58:25;;;;;;;2.47;1.67;;;;;;;25.20;48.68;101137.00;4971119;28;20031;-70
2022/09/05 09:01:05;;;;;;;3.67;1.63;;;;;;;25.29;47.17;101136.84;4971158;28;20101;-70
2022/09/05 09:04:02;;;;;;;3.25;1.60;;;;;;;25.42;49.80;101134.97;4971657;28;20035;-70
2022/09/05 09:06:56;;;;;;;1.50;1.20;;;;;;;25.44;46.91;101137.59;4952441;28;20039;-71
2022/09/05 09:09:34;;;;;;;2.40;1.60;;;;;;;25.40;48.92;101134.09;4971414;28;20039;-71
2022/09/05 09:12:12;;;;;;;1.60;1.30;;;;;;;25.18;44.78;101125.56;4971573;28;20042;-70
2022/09/05 09:14:55;;;;;;;5.43;1.10;;;;;;;25.02;46.52;101120.50;4955486;28;20067;-71
2022/09/05 09:17:45;;;;;;;3.78;1.08;;;;;;;25.26;48.50;101130.72;4952029;28;20330;-71
2022/09/05 09:20:14;;;;;;;2.95;1.15;;;;;;;25.41;45.09;101127.03;4973431;28;20083;-71
2022/09/05 09:22:57;;;;;;;1.83;1.08;;;;;;;25.58;47.77;101114.44;5030177;28;20045;-71
2022/09/05 09:25:38;;;;;;;2.15;1.30;;;;;;;25.66;48.92;101109.91;4990829;28;20081;-70
2022/09/05 09:28:21;;;;;;;2.33;1.52;;;;;;;25.76;48.86;101108.00;4990522;28;20031;-68
2022/09/05 09:30:56;;;;;;;3.13;1.10;;;;;;;25.86;45.50;101092.88;4990577;28;20070;-69
2022/09/05 09:33:39;;;;;;;1.42;1.13;;;;;;;26.09;48.86;101105.72;4990615;28;20085;-70
2022/09/05 09:36:20;;;;;;;6.55;1.30;;;;;;;26.11;45.26;101097.78;4990457;28;20125;-70
2022/09/05 09:39:11;;;;;;;1.55;1.20;;;;;;;26.20;45.05;101112.59;4990826;28;20037;-70
2022/09/05 09:41:55;;;;;;;1.35;1.23;;;;;;;26.29;44.26;101108.03;4990660;28;20592;-75
2022/09/05 09:44:58;;;;;;;9.27;2.30;;;;;;;26.54;46.93;101101.38;4990436;28;20128;-72
2022/09/05 09:47:48;;;;;;;6.95;1.90;;;;;;;26.74;41.68;101106.31;5032174;28;20124;-70
2022/09/05 09:50:36;;;;;;;2.75;1.60;;;;;;;26.93;41.86;101104.13;5032593;28;20104;-70
2022/09/05 09:53:20;;;;;;;1.85;1.20;;;;;;;27.02;42.83;101092.50;5032389;28;20037;-72
2022/09/05 09:56:04;;;;;;;2.72;1.10;;;;;;;27.10;39.97;101096.72;5032036;28;20373;-70
2022/09/05 09:58:41;;;;;;;3.72;1.20;;;;;;;27.02;42.18;101066.00;5031952;28;20037;-74
2022/09/05 10:01:24;;;;;;;2.40;1.33;;;;;;;27.15;39.34;101091.31;5032103;28;20136;-70
2022/09/05 10:04:11;;;;;;;11.75;3.17;;;;;;;27.05;43.34;101084.47;5032245;28;20395;-70
2022/09/05 10:07:04;;;;;;;2.00;1.00;;;;;;;27.20;39.99;101089.41;5031778;28;20025;-70
2022/09/05 10:09:57;;;;;;;1.67;1.00;;;;;;;27.13;38.62;101079.88;5031858;28;20037;-70
2022/09/05 10:12:50;;;;;;;3.03;1.20;;;;;;;27.11;41.64;101085.19;5031701;28;20033;-70
2022/09/05 10:15:29;;;;;;;9.95;2.72;;;;;;;27.33;40.43;101089.13;5031916;28;20091;-70
2022/09/05 10:18:16;;;;;;;1.38;1.00;;;;;;;27.33;37.83;101068.81;5031664;28;20021;-70
2022/09/05 10:21:24;;;;;;;1.65;1.30;;;;;;;27.42;38.31;101071.28;5031592;28;20542;-71
2022/09/05 10:24:14;;;;;;;2.90;1.15;;;;;;;27.41;39.35;101084.56;5031959;28;20056;-71
2022/09/05 10:27:42;;;;;;;9.90;2.17;;;;;;;27.69;36.78;101071.53;5009158;28;20129;-70
2022/09/05 10:30:45;;;;;;;7.03;1.83;;;;;;;27.95;38.97;101072.63;5009197;28;20042;-70
2022/09/05 10:33:46;;;;;;;2.72;1.10;;;;;;;28.02;36.92;101066.25;5008681;28;20125;-70
2022/09/05 10:36:23;;;;;;;6.15;1.17;;;;;;;27.84;35.75;101072.03;4950676;29;20075;-71
2022/09/05 10:38:59;;;;;;;1.17;0.90;;;;;;;27.71;34.92;101048.47;4950711;29;20924;-70
2022/09/05 10:41:40;;;;;;;1.23;1.00;;;;;;;27.98;34.60;101064.59;4950973;29;20071;-71
2022/09/05 10:44:10;;;;;;;1.80;0.80;;;;;;;28.15;34.33;101061.53;4950242;29;20027;-70
2022/09/05 10:47:13;;;;;;;1.95;1.10;;;;;;;28.11;34.21;101065.16;4950638;29;20070;-70
2022/09/05 10:49:44;;;;;;;1.52;0.93;;;;;;;28.27;34.86;101064.75;4950923;29;20028;-70
2022/09/05 10:52:21;;;;;;;1.13;0.85;;;;;;;28.14;32.91;101027.94;4950732;29;20043;-68
2022/09/05 10:55:17;;;;;;;2.40;1.10;;;;;;;28.53;32.09;101062.22;4950588;29;20413;-70
2022/09/05 10:58:23;;;;;;;1.15;0.80;;;;;;;28.68;33.08;101057.44;4964787;28;20049;-70
2022/09/05 11:01:08;;;;;;;1.00;0.90;;;;;;;28.65;31.96;101054.81;4950214;29;20035;-71
2022/09/05 11:03:49;;;;;;;1.33;0.93;;;;;;;28.68;33.96;101054.78;4950313;29;20035;-70
2022/09/05 11:06:21;;;;;;;1.10;0.93;;;;;;;28.67;33.05;101053.00;4950396;29;20122;-72
2022/09/05 11:08:58;;;;;;;1.13;0.68;;;;;;;28.69;33.24;101046.75;4955663;28;20405;-71
2022/09/05 11:11:26;;;;;;;1.13;1.00;;;;;;;28.57;33.99;101047.06;4958499;28;20117;-71
2022/09/05 11:13:57;;;;;;;1.95;0.88;;;;;;;28.62;35.78;101023.91;4969284;28;20086;-71
2022/09/05 11:16:44;;;;;;;1.80;0.90;;;;;;;28.81;33.61;101018.97;4969099;28;20047;-71
2022/09/05 11:19:18;;;;;;;5.97;1.20;;;;;;;29.01;31.65;101026.31;4966890;28;20033;-71
2022/09/05 11:21:57;;;;;;;3.63;1.38;;;;;;;29.25;32.16;101038.84;4968955;28;20043;-72
2022/09/05 11:24:29;;;;;;;;;;;;;;;29.39;35.51;101041.13;4969611;28;20030;-72
2022/09/05 11:27:04;;;;;;;1.98;0.63;;;;;;;29.37;31.70;101038.50;4968958;28;19972;-72
2022/09/05 11:29:34;;;;;;;1.50;1.10;;;;;;;29.35;33.18;101032.38;4966550;28;20529;-71
2022/09/05 11:32:39;;;;;;;7.13;3.05;;;;;;;29.41;30.71;101033.94;4968455;28;20057;-71
2022/09/05 11:35:23;;;;;;;5.10;1.13;;;;;;;29.64;29.65;101025.19;5018308;28;20048;-71
2022/09/05 11:37:49;;;;;;;2.30;0.88;;;;;;;29.73;32.73;101003.59;5047291;28;20064;-71
2022/09/05 11:40:30;;;;;;;8.35;1.90;;;;;;;29.95;30.80;101018.84;5047044;28;20047;-72
2022/09/05 11:43:23;;;;;;;6.47;1.85;;;;;;;29.48;32.52;101030.16;5045185;28;20033;-71
2022/09/05 11:46:14;;;;;;;3.38;1.60;;;;;;;29.66;30.16;101018.06;5049243;28;20682;-72
2022/09/05 11:48:58;;;;;;;6.38;2.00;;;;;;;29.89;28.97;101008.38;5048645;28;20164;-73
2022/09/05 11:51:46;;;;;;;6.20;2.40;;;;;;;30.12;30.42;101003.13;5049149;28;20056;-73
2022/09/05 11:54:29;;;;;;;3.45;1.27;;;;;;;30.29;32.48;101007.81;5062728;28;20071;-71
2022/09/05 11:57:28;;;;;;;3.03;1.17;;;;;;;30.02;31.20;100969.78;5037257;28;20033;-73
2022/09/05 12:00:18;;;;;;;1.35;0.68;;;;;;;30.33;29.11;100992.59;5039897;28;20037;-73
2022/09/05 12:03:04;;;;;;;1.98;1.00;;;;;;;30.46;30.93;100991.22;5048365;28;20032;-73
2022/09/05 12:05:58;;;;;;;2.50;0.85;;;;;;;30.21;30.46;100988.63;5048723;28;20163;-74
2022/09/05 12:08:38;;;;;;;2.53;1.10;;;;;;;30.20;30.98;100992.19;5049371;28;20041;-71
2022/09/05 12:11:34;;;;;;;4.25;1.50;;;;;;;30.31;29.96;100986.47;5049108;28;20039;-71
2022/09/05 12:14:25;;;;;;;6.38;2.03;;;;;;;30.38;29.56;100981.78;5025857;28;20045;-72
2022/09/05 12:17:24;;;;;;;5.60;0.90;;;;;;;30.59;29.61;100975.66;5028872;28;20099;-74
2022/09/05 12:19:58;;;;;;;2.20;0.90;;;;;;;30.57;31.83;100972.19;5028364;28;20514;-73
2022/09/05 12:22:28;;;;;;;6.93;1.70;;;;;;;30.45;30.08;100972.63;5028438;28;20032;-74
2022/09/05 12:25:11;;;;;;;10.10;2.50;;;;;;;30.07;31.57;100981.16;5029809;28;20112;-73
2022/09/05 12:27:37;;;;;;;1.92;1.00;;;;;;;29.51;30.87;100959.09;5029093;28;20096;-73
2022/09/05 12:30:06;;;;;;;2.35;1.30;;;;;;;29.12;31.87;100943.53;5035061;28;20083;-76
2022/09/05 12:32:32;;;;;;;2.75;1.17;;;;;;;29.03;32.92;100967.78;5041493;28;20087;-75
2022/09/05 12:35:01;;;;;;;2.78;1.10;;;;;;;29.10;32.24;100971.97;5048931;28;20036;-77
2022/09/05 12:37:32;;;;;;;2.73;1.00;;;;;;;29.16;31.75;100979.75;5049110;28;20035;-77
2022/09/05 12:40:13;;;;;;;1.77;1.10;;;;;;;29.32;31.81;100965.97;5049125;28;20032;-76
2022/09/05 12:42:51;;;;;;;3.17;1.38;;;;;;;29.35;33.09;100937.47;5029814;28;20025;-75
2022/09/05 12:45:20;;;;;;;2.88;1.20;;;;;;;29.57;33.22;100935.88;5043302;28;20515;-77